Terminal Aerodrome Forecast
Issued by NWS

Home | Current Version | Previous Version | Text Only | Print | Product List | Glossary On
Versions: 1 2 3 4 5 6 7 8 9 10 11 12 13
000
FTUS41 KALY 231100
TAFPSF
TAF
KPSF 231138Z 2312/2412 30010G22KT P6SM VCSH OVC015
      TEMPO 2312/2313 4SM -SHRA BR OVC011
     FM231300 30012G24KT 4SM -RA BR OVC011
      TEMPO 2313/2316 2SM -RA BR BKN008 OVC011
     FM231800 31015G30KT P6SM -SHRA BKN025 OVC040
     FM240000 29015G25KT P6SM BKN025 BKN070
     FM240500 29015KT P6SM SCT025 BKN050=

USA.gov is the U.S. government's official web portal to all federal, state and local government web resources and services.